Time;durP1;ratioP1;P1;durP2;ratioP2;P2;SDS_P1;SDS_P2;PMS_P1;PMS_P2;Temp;Humidity;BMP_temperature;BMP_pressure;BME280_temperature;BME280_humidity;BME280_pressure;Samples;Min_cycle;Max_cycle;Signal;HPM_P1;HPM_P2
2022/05/28 00:01:15;;;;;;;15.27;7.60;;;;;;;22.31;56.15;99080.34;5006752;28;20030;-73
2022/05/28 00:03:42;;;;;;;;;;;;;;;22.46;56.37;99083.84;5032846;28;20032;-71
2022/05/28 00:06:29;;;;;;;19.05;9.30;;;;;;;22.26;56.54;99083.66;5033180;28;20339;-71
2022/05/28 00:08:58;;;;;;;21.30;8.77;;;;;;;22.00;57.79;99068.88;4996291;28;20031;-71
2022/05/28 00:11:27;;;;;;;18.65;8.82;;;;;;;21.90;58.03;99055.56;5010140;28;20025;-71
2022/05/28 00:35:30;;;;;;;17.50;7.13;;;;;;;21.51;56.04;99049.03;5150608;27;20620;-72
2022/05/28 00:37:56;;;;;;;19.70;7.82;;;;;;;21.57;55.88;99051.00;5131518;27;20109;-72
2022/05/28 00:40:24;;;;;;;14.45;7.43;;;;;;;21.46;55.86;99051.09;5148813;27;20488;-72
2022/05/28 00:42:50;;;;;;;23.33;9.07;;;;;;;20.65;58.56;99042.72;5128775;27;20030;-72
2022/05/28 00:45:16;;;;;;;14.20;7.53;;;;;;;20.52;60.39;99050.91;5149803;27;20050;-72
2022/05/28 00:47:48;;;;;;;17.48;9.95;;;;;;;20.03;62.79;99057.16;5149723;27;20577;-71
2022/05/28 00:50:15;;;;;;;19.55;9.82;;;;;;;20.00;62.40;99055.94;5131260;27;20041;-72
2022/05/28 00:52:42;;;;;;;24.48;11.30;;;;;;;19.69;64.91;99055.59;5134552;27;20076;-72
2022/05/28 00:55:09;;;;;;;19.23;10.68;;;;;;;19.77;64.87;99056.38;5110496;28;20039;-72
2022/05/28 00:57:37;;;;;;;22.90;9.75;;;;;;;20.28;63.05;99051.41;5128828;28;20386;-72
2022/05/28 01:00:04;;;;;;;19.40;9.95;;;;;;;20.57;63.43;99056.13;5110391;28;20095;-72
2022/05/28 01:03:02;;;;;;;21.58;10.63;;;;;;;20.87;62.44;99064.09;5136541;27;20015;-72
2022/05/28 01:05:36;;;;;;;17.42;9.40;;;;;;;20.78;62.47;99049.53;5130286;27;20126;-72
2022/05/28 01:08:18;;;;;;;21.63;9.75;;;;;;;20.47;63.53;99050.13;5130800;27;20466;-72
2022/05/28 01:11:09;;;;;;;15.07;8.88;;;;;;;20.72;62.24;99054.03;5144202;27;20030;-72
2022/05/28 01:13:50;;;;;;;17.75;8.85;;;;;;;20.54;63.73;99054.13;5147389;27;20031;-72
2022/05/28 01:16:41;;;;;;;15.60;8.30;;;;;;;20.45;64.03;99046.88;5149199;27;20030;-72
2022/05/28 01:19:32;;;;;;;16.30;10.02;;;;;;;19.82;67.46;99055.97;5118794;27;20069;-72
2022/05/28 01:22:04;;;;;;;21.73;10.57;;;;;;;20.10;67.35;99057.16;5109748;27;20043;-72
2022/05/28 01:25:01;;;;;;;18.55;10.70;;;;;;;19.60;68.83;99058.03;5127679;27;20055;-73
2022/05/28 01:27:43;;;;;;;20.17;12.00;;;;;;;18.98;70.37;99051.50;5129394;27;20042;-72
2022/05/28 01:30:13;;;;;;;17.35;10.48;;;;;;;18.94;70.12;99049.50;5128314;27;20028;-72
2022/05/28 01:32:42;;;;;;;16.83;11.10;;;;;;;18.76;70.19;99052.28;5128223;27;20039;-72
2022/05/28 01:35:11;;;;;;;17.40;12.20;;;;;;;18.93;69.69;99053.50;5137231;27;20058;-72
2022/05/28 01:37:38;;;;;;;24.05;11.85;;;;;;;19.34;68.31;99046.69;5135002;27;20027;-72
2022/05/28 01:40:07;;;;;;;18.75;11.05;;;;;;;19.42;68.17;99052.38;5130472;27;20039;-72
2022/05/28 01:42:36;;;;;;;26.57;11.47;;;;;;;19.71;67.36;99052.34;5112896;28;20055;-72
2022/05/28 01:45:03;;;;;;;21.30;11.50;;;;;;;19.89;67.21;99052.28;5127169;27;20031;-72
2022/05/28 01:47:30;;;;;;;21.90;10.98;;;;;;;19.91;66.81;99041.38;5134751;27;20123;-72
2022/05/28 01:49:58;;;;;;;16.60;10.75;;;;;;;20.07;66.64;99046.59;5133015;27;20058;-72
2022/05/28 01:52:26;;;;;;;25.30;11.70;;;;;;;20.18;66.41;99049.44;5132470;27;20023;-71
2022/05/28 01:54:52;;;;;;;13.30;10.65;;;;;;;20.21;66.31;99042.91;5130556;27;20420;-72
2022/05/28 01:57:18;;;;;;;18.48;10.75;;;;;;;20.23;66.10;99043.31;5133348;27;20500;-72
2022/05/28 01:59:44;;;;;;;18.35;9.85;;;;;;;20.19;66.70;99039.69;5134484;27;20031;-72
2022/05/28 02:02:12;;;;;;;30.83;12.48;;;;;;;20.33;66.43;99039.63;5134466;27;20172;-72
2022/05/28 02:04:39;;;;;;;21.13;11.63;;;;;;;20.51;65.63;99037.91;5119070;27;20458;-72
2022/05/28 02:07:06;;;;;;;24.25;11.63;;;;;;;20.63;65.26;99031.75;5113800;28;20433;-72
2022/05/28 02:09:39;;;;;;;22.83;10.57;;;;;;;20.45;65.83;99034.69;5113391;28;20031;-71
2022/05/28 02:12:08;;;;;;;17.15;11.07;;;;;;;19.90;68.21;99037.72;5130961;27;20039;-72
2022/05/28 02:14:58;;;;;;;19.92;11.13;;;;;;;20.01;68.00;99037.69;5132292;27;20477;-72
2022/05/28 02:18:01;;;;;;;;;;;;;;;19.44;70.42;99038.59;5130730;27;20037;-72
2022/05/28 02:20:45;;;;;;;21.55;10.90;;;;;;;19.83;68.66;99045.44;5030891;28;19916;-72
2022/05/28 02:23:39;;;;;;;25.33;13.18;;;;;;;19.80;69.07;99043.44;5041475;28;20040;-72
2022/05/28 02:26:14;;;;;;;22.50;12.60;;;;;;;19.38;71.42;99041.03;5111309;27;20047;-73
2022/05/28 02:28:42;;;;;;;23.05;13.32;;;;;;;19.03;73.47;99048.31;5132743;27;20038;-72
2022/05/28 02:31:19;;;;;;;22.42;13.55;;;;;;;18.92;73.75;99049.06;5134016;27;20038;-72
2022/05/28 02:33:45;;;;;;;21.73;12.57;;;;;;;18.56;74.96;99051.81;5118299;27;20495;-72
2022/05/28 02:36:12;;;;;;;16.17;11.57;;;;;;;18.60;74.74;99058.31;5133833;27;20155;-72
2022/05/28 02:38:38;;;;;;;17.70;11.52;;;;;;;18.60;73.88;99057.50;5132426;27;20031;-72
2022/05/28 02:41:04;;;;;;;18.85;10.35;;;;;;;18.81;72.79;99056.72;5121207;27;20031;-72
2022/05/28 02:43:31;;;;;;;17.60;10.32;;;;;;;18.74;72.72;99056.72;5120381;27;20141;-71
2022/05/28 02:45:58;;;;;;;17.38;11.35;;;;;;;18.72;72.79;99053.50;5133374;27;20023;-71
2022/05/28 02:48:24;;;;;;;23.50;11.98;;;;;;;18.65;73.18;99060.75;5131598;27;20034;-72
2022/05/28 02:50:49;;;;;;;24.13;10.65;;;;;;;18.65;73.08;99057.13;5133573;27;20027;-71
2022/05/28 02:53:15;;;;;;;19.80;11.30;;;;;;;18.52;73.76;99068.81;5131455;27;20027;-72
2022/05/28 02:55:41;;;;;;;28.00;12.02;;;;;;;18.63;72.83;99066.00;5132414;27;20031;-72
2022/05/28 02:58:07;;;;;;;18.63;10.20;;;;;;;18.80;72.57;99069.28;5127705;27;20414;-72
2022/05/28 03:00:32;;;;;;;17.80;11.05;;;;;;;18.93;72.21;99064.06;5112736;28;20035;-72
2022/05/28 03:02:58;;;;;;;19.13;10.98;;;;;;;19.05;71.56;99060.03;5112590;28;20030;-72
2022/05/28 03:05:24;;;;;;;26.80;11.27;;;;;;;19.24;70.62;99063.72;5111876;27;20562;-72
2022/05/28 03:07:50;;;;;;;19.98;11.00;;;;;;;19.29;70.31;99069.78;5113020;27;20051;-72
2022/05/28 03:10:16;;;;;;;22.52;11.23;;;;;;;18.99;71.72;99078.63;5131530;27;20066;-73
2022/05/28 03:12:42;;;;;;;18.88;11.68;;;;;;;18.85;72.36;99074.56;5130915;27;20129;-72
2022/05/28 03:15:09;;;;;;;24.00;11.50;;;;;;;19.06;71.30;99079.50;5131226;27;20502;-72
2022/05/28 03:17:34;;;;;;;29.60;11.38;;;;;;;18.80;72.31;99078.59;5131980;27;20100;-72
2022/05/28 03:20:01;;;;;;;22.00;10.93;;;;;;;18.89;72.23;99081.03;5132941;27;20408;-72
2022/05/28 03:22:28;;;;;;;22.92;12.27;;;;;;;19.16;70.68;99077.88;5132911;27;20075;-72
2022/05/28 03:24:53;;;;;;;19.60;10.45;;;;;;;19.48;69.44;99082.75;5129690;27;20023;-72
2022/05/28 03:27:19;;;;;;;17.50;10.82;;;;;;;19.52;69.19;99096.13;5127957;27;20125;-72
2022/05/28 03:29:44;;;;;;;20.90;10.52;;;;;;;19.45;69.31;99109.09;5125603;27;20041;-72
2022/05/28 03:32:10;;;;;;;31.13;12.40;;;;;;;19.29;70.26;99117.16;5113639;27;20042;-72
2022/05/28 03:34:35;;;;;;;17.20;11.68;;;;;;;18.78;71.41;99117.03;5116158;27;20042;-72
2022/05/28 03:37:01;;;;;;;20.58;12.23;;;;;;;18.63;72.43;99108.50;5112125;28;20119;-72
2022/05/28 03:45:06;;;;;;;25.17;14.98;;;;;;;17.33;78.32;99131.06;5011607;28;20049;-75
2022/05/28 03:47:32;;;;;;;20.17;13.90;;;;;;;17.27;79.03;99141.09;5020171;28;20424;-75
2022/05/28 03:49:58;;;;;;;22.90;14.35;;;;;;;16.94;80.64;99143.56;5031625;28;20041;-75
2022/05/28 03:52:24;;;;;;;26.38;14.65;;;;;;;16.95;81.00;99142.34;5030871;28;20092;-75
2022/05/28 03:54:49;;;;;;;28.00;14.18;;;;;;;16.82;81.81;99152.28;5031400;28;20028;-74
2022/05/28 03:57:23;;;;;;;22.25;13.65;;;;;;;17.08;80.92;99147.75;5030817;28;20032;-75
2022/05/28 03:59:48;;;;;;;20.58;14.18;;;;;;;17.24;80.03;99156.00;5031882;28;20076;-75
2022/05/28 04:02:14;;;;;;;27.80;16.67;;;;;;;17.09;81.15;99163.53;5012701;28;20019;-74
2022/05/28 04:04:39;;;;;;;25.00;14.18;;;;;;;17.08;81.60;99162.72;5031187;28;20029;-75
2022/05/28 04:07:05;;;;;;;24.65;15.40;;;;;;;17.35;81.08;99151.28;5013422;28;20116;-74
2022/05/28 04:09:31;;;;;;;27.60;14.40;;;;;;;17.60;79.99;99145.03;5014726;28;20029;-74
2022/05/28 04:11:56;;;;;;;25.55;12.77;;;;;;;17.94;78.96;99159.03;5013581;28;20565;-75
2022/05/28 04:14:22;;;;;;;28.67;14.30;;;;;;;17.99;78.87;99149.38;5031119;28;20013;-75
2022/05/28 04:16:47;;;;;;;23.00;13.05;;;;;;;18.19;78.49;99151.94;5009222;28;20066;-75
2022/05/28 04:19:13;;;;;;;25.33;13.68;;;;;;;18.24;78.48;99160.09;5010082;28;20030;-75
2022/05/28 04:21:38;;;;;;;26.33;14.25;;;;;;;18.14;78.94;99163.66;5045255;28;20107;-74
2022/05/28 04:24:05;;;;;;;25.02;14.50;;;;;;;18.22;78.64;99168.97;5031034;28;20099;-75
2022/05/28 04:26:31;;;;;;;20.67;13.57;;;;;;;18.19;78.47;99154.78;5029580;28;20476;-75
2022/05/28 04:28:57;;;;;;;27.52;13.40;;;;;;;18.35;78.00;99154.47;5011711;28;20099;-75
2022/05/28 04:31:22;;;;;;;122.28;45.67;;;;;;;18.62;76.98;99145.69;5046829;28;20025;-75
2022/05/28 04:33:48;;;;;;;218.75;94.30;;;;;;;18.74;76.48;99147.38;5030777;28;20565;-75
2022/05/28 04:36:13;;;;;;;40.85;20.52;;;;;;;18.80;76.30;99140.94;5046312;28;20583;-75
2022/05/28 04:38:39;;;;;;;41.03;23.67;;;;;;;18.82;76.35;99129.19;5034640;28;20017;-75
2022/05/28 04:41:04;;;;;;;36.08;19.73;;;;;;;18.89;76.36;99132.03;5030132;28;20029;-75
2022/05/28 04:43:30;;;;;;;50.05;26.65;;;;;;;19.13;75.26;99126.88;5029729;28;20571;-75
2022/05/28 04:45:55;;;;;;;40.83;21.52;;;;;;;19.28;74.41;99119.22;5013165;28;20041;-72
2022/05/28 04:48:21;;;;;;;22.63;13.50;;;;;;;19.44;74.18;99113.16;5031794;28;20517;-73
2022/05/28 04:50:46;;;;;;;164.57;74.95;;;;;;;19.61;73.59;99108.69;5013131;28;20025;-72
2022/05/28 04:53:12;;;;;;;208.48;108.63;;;;;;;19.76;73.17;99095.28;5029940;28;20021;-75
2022/05/28 04:55:39;;;;;;;149.00;41.05;;;;;;;19.85;72.06;99091.22;5028993;28;20029;-74
2022/05/28 04:58:06;;;;;;;114.38;60.95;;;;;;;19.98;71.33;99086.78;5031110;28;20403;-74
2022/05/28 05:00:31;;;;;;;111.68;58.78;;;;;;;20.25;69.61;99089.13;5044656;28;20017;-74
2022/05/28 05:02:57;;;;;;;42.75;22.25;;;;;;;20.45;68.41;99091.50;5028662;28;20079;-75
2022/05/28 05:05:23;;;;;;;43.33;17.52;;;;;;;20.58;66.59;99100.38;5030707;28;20018;-74
2022/05/28 05:07:48;;;;;;;30.70;12.27;;;;;;;20.72;65.93;99099.50;5030240;28;20060;-75
2022/05/28 05:10:14;;;;;;;29.73;13.77;;;;;;;20.86;64.76;99101.50;5036764;28;20044;-77
2022/05/28 05:12:39;;;;;;;17.10;9.85;;;;;;;20.94;63.79;99091.72;5033024;28;20029;-75
2022/05/28 05:15:05;;;;;;;12.65;7.72;;;;;;;21.05;62.25;99094.47;5023618;28;20029;-75
2022/05/28 05:17:31;;;;;;;17.35;7.70;;;;;;;21.21;60.41;99101.66;5023159;28;20026;-76
2022/05/28 05:19:57;;;;;;;21.45;8.57;;;;;;;21.22;60.46;99098.41;5031820;28;20036;-75
2022/05/28 05:22:22;;;;;;;15.70;8.13;;;;;;;21.34;60.15;99105.63;5033340;28;20021;-75
2022/05/28 05:24:48;;;;;;;26.40;8.57;;;;;;;21.57;60.50;99101.38;5034371;28;20037;-76
2022/05/28 05:27:14;;;;;;;18.33;8.00;;;;;;;21.78;61.14;99106.13;5016782;28;20025;-76
2022/05/28 05:29:40;;;;;;;19.15;7.70;;;;;;;21.74;59.76;99105.34;5034545;28;20034;-76
2022/05/28 05:32:06;;;;;;;13.50;6.43;;;;;;;21.79;59.41;99104.91;5031152;28;20025;-76
2022/05/28 05:34:31;;;;;;;17.38;8.00;;;;;;;21.85;59.66;99114.59;5032030;28;20092;-75
2022/05/28 05:36:57;;;;;;;16.55;7.60;;;;;;;21.77;58.94;99123.63;5031784;28;20131;-76
2022/05/28 05:39:22;;;;;;;19.25;8.35;;;;;;;21.85;59.37;99116.66;5032745;28;20131;-75
2022/05/28 05:41:48;;;;;;;16.85;7.50;;;;;;;22.05;58.07;99119.69;5035611;28;20029;-75
2022/05/28 05:44:14;;;;;;;23.90;11.85;;;;;;;22.26;57.62;99114.97;5013518;28;20435;-76
2022/05/28 05:46:41;;;;;;;14.18;7.82;;;;;;;22.38;58.27;99113.66;5029993;28;20122;-76
2022/05/28 05:49:08;;;;;;;20.92;11.88;;;;;;;22.34;57.37;99112.88;5014483;28;20032;-75
2022/05/28 05:51:40;;;;;;;37.45;20.95;;;;;;;22.32;56.54;99118.19;5032532;28;20527;-75
2022/05/28 05:54:06;;;;;;;18.13;11.27;;;;;;;22.26;56.48;99121.50;5035173;28;20025;-75
2022/05/28 05:56:31;;;;;;;18.70;7.90;;;;;;;22.35;58.26;99125.91;5042427;28;20183;-76
2022/05/28 05:58:57;;;;;;;20.33;10.48;;;;;;;22.62;56.48;99128.03;5033975;28;20047;-75
2022/05/28 06:01:24;;;;;;;29.73;9.93;;;;;;;22.75;56.13;99134.78;5032257;28;20026;-75
2022/05/28 06:03:50;;;;;;;19.40;8.98;;;;;;;22.90;56.47;99149.69;5025148;28;20033;-75
2022/05/28 06:06:17;;;;;;;13.57;8.50;;;;;;;22.91;56.63;99144.75;5032835;28;20114;-75
2022/05/28 06:08:43;;;;;;;26.10;9.02;;;;;;;22.84;55.80;99145.66;5029497;28;20021;-75
2022/05/28 06:11:09;;;;;;;19.20;7.47;;;;;;;22.86;57.30;99155.41;5019348;28;20507;-75
2022/05/28 06:13:36;;;;;;;13.85;7.80;;;;;;;22.99;57.33;99149.16;5031792;28;20083;-75
2022/05/28 06:16:02;;;;;;;15.98;7.72;;;;;;;23.08;57.41;99158.00;5031703;28;20025;-75
2022/05/28 06:18:28;;;;;;;17.20;8.43;;;;;;;23.05;57.08;99155.19;5032430;28;20136;-76
2022/05/28 06:20:55;;;;;;;16.42;7.97;;;;;;;23.03;57.45;99169.06;5031645;28;20112;-75
2022/05/28 06:23:21;;;;;;;19.83;8.95;;;;;;;23.11;57.89;99176.28;5014669;28;20021;-74
2022/05/28 06:25:47;;;;;;;14.18;7.07;;;;;;;23.01;57.31;99172.34;5031466;28;20032;-74
2022/05/28 06:28:13;;;;;;;16.90;8.25;;;;;;;23.03;56.45;99177.63;5014235;28;20025;-79
2022/05/28 06:30:40;;;;;;;23.70;9.18;;;;;;;22.80;57.25;99185.63;5032251;28;20032;-77
2022/05/28 06:33:06;;;;;;;14.43;8.98;;;;;;;23.06;57.23;99185.31;5032316;28;20603;-81
2022/05/28 06:35:32;;;;;;;19.83;8.02;;;;;;;23.13;57.70;99168.13;5033379;28;20025;-80
2022/05/28 06:37:58;;;;;;;27.95;8.30;;;;;;;23.28;57.32;99174.44;5037014;28;20028;-73
2022/05/28 06:40:24;;;;;;;16.73;9.48;;;;;;;22.76;57.60;99176.31;5032306;28;20033;-73
2022/05/28 06:42:51;;;;;;;17.35;9.18;;;;;;;22.71;58.25;99163.34;5014007;28;20034;-75
2022/05/28 06:45:17;;;;;;;15.52;8.30;;;;;;;23.03;59.31;99155.59;5016941;28;20037;-78
2022/05/28 06:47:44;;;;;;;17.38;8.10;;;;;;;23.38;57.91;99153.50;5022472;28;20060;-71
2022/05/28 06:52:57;;;;;;;15.05;8.63;;;;;;;23.67;57.05;99138.78;5026317;28;20510;-79
2022/05/28 06:55:22;;;;;;;22.95;9.93;;;;;;;23.73;56.92;99136.25;5031438;28;20021;-79
2022/05/28 06:57:49;;;;;;;16.17;8.57;;;;;;;23.81;54.70;99142.63;5011758;28;20030;-80
2022/05/28 07:00:15;;;;;;;16.20;8.13;;;;;;;24.08;55.85;99139.75;5032627;28;20026;-73
2022/05/28 07:02:41;;;;;;;17.52;8.80;;;;;;;24.22;55.54;99123.59;5014327;28;20021;-77
2022/05/28 07:05:07;;;;;;;29.42;9.90;;;;;;;24.07;53.75;99125.91;5026947;28;21980;-81
2022/05/28 07:07:32;;;;;;;17.27;8.75;;;;;;;24.18;54.20;99120.78;5028438;28;20074;-78
2022/05/28 07:09:58;;;;;;;13.63;8.55;;;;;;;24.37;53.03;99115.50;5030889;28;20037;-76
2022/05/28 07:12:23;;;;;;;23.77;10.48;;;;;;;24.41;53.79;99116.28;5013719;28;20246;-73
2022/05/28 07:14:49;;;;;;;21.65;10.23;;;;;;;24.27;54.20;99110.84;5012352;28;20033;-75
2022/05/28 07:17:14;;;;;;;24.17;8.80;;;;;;;24.47;53.73;99099.41;5025895;28;20017;-76
2022/05/28 07:19:41;;;;;;;26.73;10.45;;;;;;;24.54;54.21;99102.94;5046009;28;20543;-72
2022/05/28 07:22:07;;;;;;;29.70;9.98;;;;;;;24.76;54.58;99101.66;5031171;28;20070;-75
2022/05/28 07:24:33;;;;;;;18.00;8.13;;;;;;;24.77;53.25;99092.69;5028724;28;20022;-76
2022/05/28 07:26:59;;;;;;;26.52;9.20;;;;;;;24.91;53.70;99091.53;5026156;28;20033;-77
2022/05/28 07:29:24;;;;;;;23.45;11.20;;;;;;;25.11;53.56;99087.03;5010389;28;20029;-77
2022/05/28 07:31:50;;;;;;;20.08;9.95;;;;;;;24.98;54.34;99075.47;5030168;28;20029;-77
2022/05/28 07:34:15;;;;;;;18.98;8.93;;;;;;;25.08;53.41;99069.50;5006869;28;20052;-73
2022/05/28 07:36:41;;;;;;;16.92;8.65;;;;;;;25.26;52.04;99062.56;5013137;28;20032;-75
2022/05/28 07:39:07;;;;;;;20.85;8.55;;;;;;;25.54;51.68;99065.97;5030166;28;20029;-74
2022/05/28 07:41:32;;;;;;;21.90;8.80;;;;;;;25.53;50.54;99066.44;5009416;28;20025;-76
2022/05/28 07:43:58;;;;;;;21.92;8.02;;;;;;;25.57;49.92;99061.41;5012760;28;20046;-72
2022/05/28 07:46:27;;;;;;;15.93;8.23;;;;;;;25.61;49.96;99056.38;5013636;28;20025;-74
2022/05/28 07:48:56;;;;;;;19.77;10.30;;;;;;;25.77;48.25;99046.97;5030953;28;20505;-74
2022/05/28 07:51:22;;;;;;;20.23;8.50;;;;;;;25.78;48.79;99043.69;5039459;28;20479;-73
2022/05/28 07:53:48;;;;;;;19.85;10.02;;;;;;;25.80;47.81;99031.75;5032104;28;20037;-78
2022/05/28 07:56:14;;;;;;;20.17;8.23;;;;;;;25.81;47.71;99029.72;5028372;28;20022;-72
2022/05/28 07:58:40;;;;;;;13.32;8.63;;;;;;;26.02;47.64;99028.28;5031398;28;20049;-72
2022/05/28 08:01:07;;;;;;;20.48;8.65;;;;;;;26.07;47.90;99027.75;5021445;28;20034;-74
2022/05/28 08:03:34;;;;;;;16.55;8.38;;;;;;;25.82;48.67;99031.31;5032471;28;20025;-73
2022/05/28 08:06:01;;;;;;;17.30;7.60;;;;;;;26.14;47.62;99012.44;5031173;28;20040;-74
2022/05/28 08:08:27;;;;;;;16.58;8.43;;;;;;;26.40;47.61;99009.66;5031117;28;20014;-71
2022/05/28 08:10:53;;;;;;;38.13;10.93;;;;;;;26.43;46.28;99005.88;5030231;28;20092;-73
2022/05/28 08:13:22;;;;;;;18.50;8.15;;;;;;;26.35;45.36;98996.69;5033070;28;20096;-76
2022/05/28 08:15:51;;;;;;;18.77;8.10;;;;;;;26.53;46.01;98990.41;5045432;28;20024;-80
2022/05/28 08:18:18;;;;;;;17.70;8.45;;;;;;;26.64;45.47;98984.31;5013279;28;20440;-73
2022/05/28 08:23:29;;;;;;;17.88;8.07;;;;;;;26.70;44.42;98968.16;5043098;28;20036;-81
2022/05/28 08:25:56;;;;;;;27.40;8.65;;;;;;;26.61;45.49;98976.63;5013274;28;20158;-78
2022/05/28 08:28:22;;;;;;;26.40;9.65;;;;;;;26.69;44.45;98948.53;5013373;28;20028;-77
2022/05/28 08:30:48;;;;;;;23.08;9.15;;;;;;;26.90;44.25;98950.75;5006729;28;20037;-79
2022/05/28 08:33:16;;;;;;;14.48;7.25;;;;;;;26.54;43.83;98953.91;5020332;28;20037;-78
2022/05/28 08:35:43;;;;;;;23.48;9.55;;;;;;;26.89;45.10;98968.41;5027147;28;20108;-78
2022/05/28 08:38:15;;;;;;;22.30;9.50;;;;;;;27.38;44.23;98969.25;5046317;28;20025;-78
2022/05/28 08:41:12;;;;;;;15.00;8.23;;;;;;;26.79;44.97;98961.72;5030892;28;20491;-73
2022/05/28 08:44:14;;;;;;;20.83;8.52;;;;;;;27.31;44.87;98950.19;5021132;28;20497;-76
2022/05/28 08:46:43;;;;;;;16.65;8.52;;;;;;;27.62;42.83;98946.69;5027041;28;20527;-75
2022/05/28 08:49:12;;;;;;;12.73;7.72;;;;;;;27.80;43.28;98939.47;5034728;28;20476;-81
2022/05/28 08:52:05;;;;;;;17.10;8.35;;;;;;;27.56;42.07;98942.78;5026683;28;20071;-73
2022/05/28 08:54:34;;;;;;;40.80;10.55;;;;;;;27.67;42.07;98940.34;5008067;28;20017;-75
2022/05/28 08:57:20;;;;;;;24.73;9.87;;;;;;;28.00;42.52;98934.19;5036975;28;20507;-76
2022/05/28 08:59:58;;;;;;;17.20;8.13;;;;;;;27.80;41.92;98920.19;5024730;28;20045;-75
2022/05/28 09:02:38;;;;;;;39.00;17.25;;;;;;;28.18;40.80;98909.75;5034827;28;20030;-76
2022/05/28 09:05:14;;;;;;;20.45;9.20;;;;;;;28.64;41.10;98914.91;5035146;28;20029;-74
2022/05/28 09:07:40;;;;;;;25.67;9.15;;;;;;;29.00;43.04;98907.69;5011889;28;20030;-73
2022/05/28 09:10:10;;;;;;;31.60;20.15;;;;;;;28.70;44.60;98921.63;5004158;28;20111;-74
2022/05/28 09:12:45;;;;;;;42.55;20.05;;;;;;;28.38;46.60;98920.88;5016458;28;20079;-74
2022/05/28 09:15:11;;;;;;;54.50;20.77;;;;;;;28.01;46.80;98924.31;5034019;28;20514;-74
2022/05/28 09:17:43;;;;;;;61.92;32.25;;;;;;;27.83;46.11;98927.84;5023393;28;20057;-75
2022/05/28 09:20:15;;;;;;;20.83;17.17;;;;;;;27.80;46.74;98931.66;5037590;28;20040;-75
2022/05/28 09:22:41;;;;;;;48.85;15.73;;;;;;;27.33;48.54;98937.00;5035514;28;20144;-73
2022/05/28 09:25:07;;;;;;;40.60;13.35;;;;;;;27.56;48.66;98928.44;5032329;28;20474;-73
2022/05/28 09:27:48;;;;;;;21.38;11.93;;;;;;;27.62;48.51;98932.34;5035771;28;20476;-74
2022/05/28 09:30:25;;;;;;;30.30;16.00;;;;;;;27.84;47.32;98937.28;5036982;28;20086;-74
2022/05/28 09:33:24;;;;;;;25.38;15.40;;;;;;;27.83;48.27;98947.97;5025014;28;20416;-74
2022/05/28 09:35:55;;;;;;;14.57;11.57;;;;;;;27.81;47.94;98949.69;5010543;28;20032;-75
2022/05/28 09:38:42;;;;;;;22.98;14.90;;;;;;;27.70;47.45;98945.16;5022878;28;20037;-76
2022/05/28 09:41:35;;;;;;;25.08;12.25;;;;;;;27.75;47.35;98953.19;5017968;28;20025;-77
2022/05/28 09:44:14;;;;;;;20.77;10.77;;;;;;;27.76;46.94;98954.00;4995454;28;20199;-77
2022/05/28 09:46:42;;;;;;;26.52;18.58;;;;;;;27.77;46.87;98949.84;5011318;28;20121;-74
2022/05/28 09:49:15;;;;;;;169.90;116.40;;;;;;;27.74;47.09;98936.41;5007504;28;20033;-78
2022/05/28 09:52:04;;;;;;;94.38;83.75;;;;;;;27.35;48.60;98948.03;5031483;28;20445;-74
2022/05/28 09:54:33;;;;;;;69.65;46.85;;;;;;;27.69;47.54;98940.66;5020155;28;20034;-73
2022/05/28 09:57:01;;;;;;;77.10;55.85;;;;;;;27.86;46.01;98931.88;5014164;28;20467;-73
2022/05/28 09:59:43;;;;;;;34.15;16.00;;;;;;;27.94;45.70;98912.28;5005442;28;20549;-75
2022/05/28 10:02:20;;;;;;;25.77;12.23;;;;;;;28.04;45.97;98913.97;5006445;28;20048;-72
2022/05/28 10:05:08;;;;;;;19.73;11.23;;;;;;;27.75;47.17;98906.41;5028939;28;20500;-74
2022/05/28 10:07:52;;;;;;;15.27;10.07;;;;;;;27.71;47.33;98909.44;5023821;28;20441;-74
2022/05/28 10:10:20;;;;;;;29.42;10.73;;;;;;;27.66;46.56;98920.72;5033028;28;20021;-75
2022/05/28 10:12:46;;;;;;;19.73;11.50;;;;;;;27.77;46.42;98931.78;5027934;28;20053;-74
2022/05/28 10:15:16;;;;;;;12.93;8.80;;;;;;;27.82;46.61;98928.34;5026802;28;20068;-74
2022/05/28 10:17:44;;;;;;;19.55;9.82;;;;;;;27.71;46.92;98943.09;5025690;28;20064;-77
2022/05/28 10:20:17;;;;;;;17.00;9.85;;;;;;;27.81;46.54;98956.25;5028609;28;20463;-75
2022/05/28 10:22:43;;;;;;;16.23;9.15;;;;;;;27.85;46.34;98961.88;5031031;28;20105;-77
2022/05/28 10:25:22;;;;;;;15.10;9.10;;;;;;;27.76;46.69;98959.75;5032165;28;20083;-77
2022/05/28 10:27:51;;;;;;;10.85;8.88;;;;;;;27.65;47.32;98950.72;5030555;28;20092;-78
2022/05/28 10:30:30;;;;;;;21.85;10.05;;;;;;;27.18;48.63;98933.81;5030029;28;20112;-77
2022/05/28 10:32:56;;;;;;;;;;;;;;;27.19;48.05;98923.16;5014926;28;20055;-79
2022/05/28 10:35:26;;;;;;;17.55;9.02;;;;;;;27.21;48.43;98929.22;5014543;28;20003;-79
2022/05/28 10:37:53;;;;;;;14.20;8.02;;;;;;;27.44;47.76;98930.06;5032004;28;20033;-76
2022/05/28 10:40:23;;;;;;;37.78;9.88;;;;;;;27.57;47.21;98932.91;5025495;28;20029;-78
2022/05/28 10:42:48;;;;;;;;;;;;;;;27.56;47.38;98931.31;5032412;28;20112;-80
2022/05/28 10:45:20;;;;;;;15.43;8.30;;;;;;;27.51;47.18;98926.94;5022835;28;20008;-74
2022/05/28 10:47:45;;;;;;;18.48;8.20;;;;;;;27.30;47.98;98919.88;5009959;28;20534;-80
2022/05/28 10:50:25;;;;;;;17.73;8.65;;;;;;;27.26;48.33;98922.88;5019388;28;20104;-77
2022/05/28 10:52:57;;;;;;;10.68;9.02;;;;;;;27.13;48.54;98925.81;5011214;28;20049;-80
2022/05/28 10:55:36;;;;;;;21.48;8.63;;;;;;;27.14;48.59;98932.31;5019766;28;20187;-80
2022/05/28 10:58:15;;;;;;;16.63;7.80;;;;;;;27.11;47.05;98944.75;5021804;28;20026;-80
2022/05/28 11:01:01;;;;;;;24.13;8.20;;;;;;;27.07;48.43;98938.31;5024733;28;20511;-79
2022/05/28 11:04:09;;;;;;;17.23;8.07;;;;;;;27.14;48.10;98932.31;5028055;28;20037;-79
2022/05/28 11:06:55;;;;;;;16.80;8.02;;;;;;;27.23;47.79;98931.63;4929700;29;20132;-76
2022/05/28 11:09:52;;;;;;;17.00;8.13;;;;;;;27.36;47.56;98912.31;5017138;28;20049;-80
2022/05/28 11:12:34;;;;;;;18.27;7.80;;;;;;;27.35;46.74;98913.56;5032336;28;20128;-80
2022/05/28 11:14:59;;;;;;;12.13;8.02;;;;;;;27.24;45.41;98895.94;5012762;28;20026;-80
2022/05/28 11:18:02;;;;;;;30.70;7.57;;;;;;;27.24;46.31;98890.97;5012619;28;20083;-77
2022/05/28 11:20:43;;;;;;;14.15;7.32;;;;;;;27.46;46.46;98890.22;5012940;28;20045;-80
2022/05/28 11:23:21;;;;;;;16.50;6.93;;;;;;;27.73;45.86;98895.41;5012158;28;20021;-78
2022/05/28 11:26:08;;;;;;;27.88;7.88;;;;;;;27.83;45.90;98893.38;5021183;28;20021;-80
2022/05/28 11:29:00;;;;;;;36.58;8.90;;;;;;;27.85;45.49;98893.72;5026089;28;20116;-80
2022/05/28 11:31:56;;;;;;;22.75;7.40;;;;;;;27.86;45.08;98895.31;5027657;28;20057;-79
2022/05/28 11:34:33;;;;;;;16.95;7.32;;;;;;;27.86;45.23;98886.69;5020926;28;20029;-80
2022/05/28 11:37:12;;;;;;;28.75;7.60;;;;;;;27.89;44.66;98888.66;5024212;28;20033;-80
2022/05/28 11:40:21;;;;;;;21.48;7.93;;;;;;;27.71;46.93;98877.03;5029299;28;20033;-79
2022/05/28 11:43:04;;;;;;;20.67;8.20;;;;;;;27.37;48.93;98872.91;5023076;28;20087;-79
2022/05/28 11:45:43;;;;;;;22.95;9.40;;;;;;;26.98;51.56;98867.31;5031759;28;20091;-80
2022/05/28 11:51:35;;;;;;;18.90;9.10;;;;;;;26.29;53.12;98893.25;5031626;28;20048;-80
2022/05/28 11:54:14;;;;;;;22.15;8.60;;;;;;;26.25;53.85;98883.16;5025405;28;20028;-80
2022/05/28 11:56:41;;;;;;;29.65;11.02;;;;;;;26.13;53.75;98864.69;5011330;28;20037;-80
2022/05/28 11:59:12;;;;;;;18.75;10.43;;;;;;;26.19;53.58;98878.03;5031283;28;20443;-78
2022/05/28 12:01:53;;;;;;;21.38;10.07;;;;;;;26.08;53.22;98883.25;5021983;28;20506;-80
2022/05/28 12:04:19;;;;;;;16.08;9.70;;;;;;;25.89;54.22;98876.47;4997578;28;20040;-80
2022/05/28 12:07:00;;;;;;;24.58;10.80;;;;;;;26.23;54.00;98866.41;5027729;28;20022;-80
2022/05/28 12:09:28;;;;;;;18.70;9.65;;;;;;;26.15;52.05;98860.09;5028242;28;20074;-80
2022/05/28 12:12:14;;;;;;;20.67;9.50;;;;;;;25.73;53.07;98857.28;5010047;28;20069;-80
2022/05/28 12:14:43;;;;;;;16.77;9.00;;;;;;;25.77;51.80;98858.78;5015880;28;20087;-79